createdAt,value
2022-11-30T00:03:58.976Z,101994.52
2022-11-30T00:09:06.137Z,101995.77
2022-11-30T00:14:13.084Z,101997.38
2022-11-30T00:19:20.180Z,102001.11
2022-11-30T00:24:27.207Z,102000.79
2022-11-30T00:29:34.287Z,102004.02
2022-11-30T00:34:41.376Z,102006.05
2022-11-30T00:39:48.504Z,102006.34
2022-11-30T00:44:55.423Z,102012.95
2022-11-30T00:50:02.303Z,102013.27
2022-11-30T00:55:10.915Z,102012.45
2022-11-30T01:00:18.311Z,102007.94
2022-11-30T01:05:25.596Z,102008.27
2022-11-30T01:10:32.651Z,102003.77
2022-11-30T01:15:42.623Z,102009.29
2022-11-30T01:20:49.801Z,102008.55
2022-11-30T01:25:59.807Z,102015.97
2022-11-30T01:31:08.568Z,102019.00
2022-11-30T01:36:17.629Z,102025.77
2022-11-30T01:41:27.240Z,102022.09
2022-11-30T01:46:38.006Z,102026.02
2022-11-30T01:51:48.200Z,102025.38
2022-11-30T01:56:57.972Z,102029.31
2022-11-30T02:02:04.939Z,102033.48
2022-11-30T02:07:12.305Z,102033.52
2022-11-30T02:12:26.984Z,102035.91
2022-11-30T02:17:45.143Z,102033.19
2022-11-30T02:23:19.685Z,102037.91
2022-11-30T02:28:57.258Z,102040.40
2022-11-30T02:34:07.528Z,102038.71
2022-11-30T02:39:14.625Z,102041.84
2022-11-30T02:44:24.186Z,102045.98
2022-11-30T02:49:39.150Z,102048.23
2022-11-30T02:54:46.545Z,102050.55
2022-11-30T02:59:54.105Z,102041.42
2022-11-30T03:05:01.052Z,102044.03
2022-11-30T03:10:10.545Z,102042.89
2022-11-30T03:15:17.914Z,102046.31
2022-11-30T03:20:24.929Z,102047.73
2022-11-30T03:25:32.045Z,102051.98
2022-11-30T03:30:38.953Z,102054.46
2022-11-30T03:35:46.336Z,102055.48
2022-11-30T03:41:00.067Z,102057.95
2022-11-30T03:46:07.410Z,102062.20
2022-11-30T03:51:15.051Z,102067.23
2022-11-30T03:56:22.645Z,102068.98
2022-11-30T04:01:29.683Z,102074.82
2022-11-30T04:06:36.692Z,102077.16
2022-11-30T04:11:43.775Z,102080.84
2022-11-30T04:16:50.857Z,102085.36
2022-11-30T04:21:57.744Z,102088.45
2022-11-30T04:27:04.760Z,102085.80
2022-11-30T04:32:11.641Z,102087.59
2022-11-30T04:37:18.622Z,102091.34
2022-11-30T04:42:25.709Z,102090.70
2022-11-30T04:47:32.804Z,102095.18
2022-11-30T04:52:39.743Z,102094.95
2022-11-30T04:57:46.956Z,102097.23
2022-11-30T05:02:53.930Z,102100.34
2022-11-30T05:08:01.924Z,102107.38
2022-11-30T05:13:09.178Z,102107.25
2022-11-30T05:18:16.864Z,102108.95
2022-11-30T05:23:24.720Z,102114.87
2022-11-30T05:28:31.789Z,102115.73
2022-11-30T05:33:38.937Z,102117.98
2022-11-30T05:38:46.019Z,102120.86
2022-11-30T05:43:53.053Z,102124.42
2022-11-30T05:49:00.128Z,102131.88
2022-11-30T05:54:07.517Z,102133.90
2022-11-30T05:59:14.818Z,102139.15
2022-11-30T06:04:22.757Z,102142.40
2022-11-30T06:09:28.336Z,102150.59
2022-11-30T06:14:35.358Z,102150.11
2022-11-30T06:19:42.330Z,102154.50
2022-11-30T06:24:50.402Z,102156.70
2022-11-30T06:29:57.723Z,102163.39
2022-11-30T06:35:05.960Z,102167.73
2022-11-30T06:40:14.960Z,102171.90
2022-11-30T06:45:21.954Z,102172.62
2022-11-30T06:50:29.161Z,102177.68
2022-11-30T06:55:37.542Z,102183.85
2022-11-30T07:00:45.491Z,102179.90
2022-11-30T07:05:51.017Z,102183.30
2022-11-30T07:11:00.610Z,102189.79
2022-11-30T07:16:09.667Z,102195.95
2022-11-30T07:21:16.861Z,102198.75
2022-11-30T07:26:24.726Z,102203.58
2022-11-30T07:31:31.124Z,102210.40
2022-11-30T07:36:39.011Z,102213.96
2022-11-30T07:41:46.061Z,102217.29
2022-11-30T07:46:53.464Z,102225.38
2022-11-30T07:52:00.498Z,102229.80
2022-11-30T07:57:07.677Z,102227.86
2022-11-30T08:02:14.873Z,102223.89
2022-11-30T08:07:21.999Z,102227.00
2022-11-30T08:12:29.024Z,102228.04
2022-11-30T08:17:36.848Z,102229.21
2022-11-30T08:22:44.174Z,102233.83
2022-11-30T08:27:51.292Z,102233.41
2022-11-30T08:32:59.215Z,102227.09
2022-11-30T08:38:04.955Z,102236.81
2022-11-30T08:43:12.081Z,102244.20
2022-11-30T08:48:19.222Z,102252.89
2022-11-30T08:53:26.428Z,102262.69
2022-11-30T08:58:35.704Z,102259.30
2022-11-30T09:03:43.975Z,102267.38
2022-11-30T09:08:53.334Z,102270.13
2022-11-30T09:14:04.212Z,102279.58
2022-11-30T09:19:12.009Z,102274.80
2022-11-30T09:24:19.651Z,102277.20
2022-11-30T09:29:27.187Z,102281.70
2022-11-30T09:34:34.206Z,102285.40
2022-11-30T09:39:41.212Z,102283.14
2022-11-30T09:44:59.797Z,102284.77
2022-11-30T09:50:15.164Z,102282.84
2022-11-30T09:55:29.023Z,102276.92
2022-11-30T10:00:38.705Z,102269.95
2022-11-30T10:05:53.271Z,102271.17
2022-11-30T10:11:17.553Z,102276.29
2022-11-30T10:16:32.833Z,102275.95
2022-11-30T10:21:53.656Z,102270.62
2022-11-30T10:27:06.026Z,102265.61
2022-11-30T10:32:19.713Z,102263.94
2022-11-30T10:37:36.485Z,102264.23
2022-11-30T10:42:47.992Z,102262.80
2022-11-30T10:48:02.110Z,102259.25
2022-11-30T10:53:11.456Z,102260.33
2022-11-30T10:58:23.992Z,102259.71
2022-11-30T11:03:31.105Z,102253.58
2022-11-30T11:08:38.338Z,102254.72
2022-11-30T11:13:46.049Z,102256.20
2022-11-30T11:18:57.684Z,102259.02
2022-11-30T11:24:11.976Z,102259.91
2022-11-30T11:29:32.533Z,102259.73
2022-11-30T11:34:40.027Z,102261.76
2022-11-30T11:39:59.475Z,102261.05
2022-11-30T11:45:17.015Z,102261.21
2022-11-30T11:56:06.542Z,102260.03
2022-11-30T12:01:40.808Z,102261.56
2022-11-30T12:06:53.051Z,102273.14
2022-11-30T12:12:00.198Z,102272.44
2022-11-30T12:17:22.123Z,102271.73
2022-11-30T12:22:48.216Z,102273.88
2022-11-30T12:28:07.136Z,102274.23
2022-11-30T12:33:28.592Z,102277.96
2022-11-30T12:38:50.322Z,102280.09
2022-11-30T12:44:06.670Z,102279.00
2022-11-30T12:49:28.280Z,102275.93
2022-11-30T12:54:45.424Z,102273.48
2022-11-30T13:00:03.068Z,102276.48
2022-11-30T13:05:15.667Z,102280.02
2022-11-30T13:10:31.204Z,102273.72
2022-11-30T13:15:40.303Z,102275.10
2022-11-30T13:20:54.755Z,102279.52
2022-11-30T13:26:10.447Z,102284.10
2022-11-30T13:31:25.334Z,102282.77
2022-11-30T13:36:38.297Z,102278.73
2022-11-30T13:41:47.610Z,102279.67
2022-11-30T13:46:56.070Z,102283.52
2022-11-30T13:58:08.916Z,102281.38
2022-11-30T14:03:29.652Z,102299.39
2022-11-30T14:08:41.238Z,102300.48
2022-11-30T14:13:48.477Z,102300.33
2022-11-30T14:18:57.046Z,102298.52
2022-11-30T14:24:08.025Z,102295.02
2022-11-30T14:29:22.195Z,102294.38
2022-11-30T14:34:33.988Z,102296.41
2022-11-30T14:39:46.309Z,102297.06
2022-11-30T14:44:53.861Z,102297.94
2022-11-30T14:50:03.142Z,102293.43
2022-11-30T14:55:20.098Z,102301.33
2022-11-30T15:00:27.595Z,102298.30
2022-11-30T15:05:34.794Z,102304.41
2022-11-30T15:10:42.794Z,102309.23
2022-11-30T15:15:55.984Z,102312.02
2022-11-30T15:21:08.514Z,102310.55
2022-11-30T15:26:21.304Z,102315.61
2022-11-30T15:31:33.355Z,102317.68
2022-11-30T15:36:40.884Z,102320.71
2022-11-30T15:41:48.065Z,102330.89
2022-11-30T15:47:00.339Z,102334.58
2022-11-30T15:52:17.542Z,102333.30
2022-11-30T15:57:27.428Z,102333.55
2022-11-30T16:02:37.605Z,102337.34
2022-11-30T16:07:52.750Z,102340.91
2022-11-30T16:13:00.243Z,102337.33
2022-11-30T16:18:18.023Z,102330.06
2022-11-30T16:23:25.016Z,102331.05
2022-11-30T16:28:31.960Z,102333.58
2022-11-30T16:33:38.915Z,102335.55
2022-11-30T16:38:51.350Z,102336.66
2022-11-30T16:43:59.232Z,102339.52
2022-11-30T16:49:06.409Z,102340.97
2022-11-30T16:54:15.082Z,102338.46
2022-11-30T16:59:22.048Z,102339.53
2022-11-30T17:04:31.108Z,102347.62
2022-11-30T17:09:38.320Z,102352.45
2022-11-30T17:14:45.458Z,102349.67
2022-11-30T17:19:52.648Z,102346.94
2022-11-30T17:24:59.548Z,102343.86
2022-11-30T17:30:08.385Z,102349.73
2022-11-30T17:35:16.167Z,102354.52
2022-11-30T17:40:23.268Z,102355.79
2022-11-30T17:45:30.294Z,102359.60
2022-11-30T17:50:38.829Z,102366.51
2022-11-30T17:55:46.908Z,102376.83
2022-11-30T18:00:55.253Z,102377.14
2022-11-30T18:06:04.074Z,102378.16
2022-11-30T18:11:16.927Z,102378.29
2022-11-30T18:16:26.254Z,102376.15
2022-11-30T18:21:33.410Z,102378.34
2022-11-30T18:26:41.316Z,102381.57
2022-11-30T18:31:48.579Z,102389.35
2022-11-30T18:36:55.623Z,102391.94
2022-11-30T18:42:02.563Z,102391.22
2022-11-30T18:47:09.502Z,102392.05
2022-11-30T18:52:16.559Z,102393.55
2022-11-30T18:57:23.752Z,102392.16
2022-11-30T19:02:30.851Z,102393.21
2022-11-30T19:07:40.915Z,102395.50
2022-11-30T19:12:48.021Z,102402.94
2022-11-30T19:17:55.579Z,102404.82
2022-11-30T19:23:04.093Z,102402.51
2022-11-30T19:28:11.185Z,102407.97
2022-11-30T19:33:18.346Z,102414.40
2022-11-30T19:38:25.455Z,102411.86
2022-11-30T19:43:32.634Z,102413.02
2022-11-30T19:48:39.933Z,102412.70
2022-11-30T19:53:47.038Z,102417.16
2022-11-30T19:58:56.864Z,102417.30
2022-11-30T20:04:09.155Z,102410.59
2022-11-30T20:09:17.113Z,102410.97
2022-11-30T20:14:23.234Z,102414.80
2022-11-30T20:19:30.299Z,102416.51
2022-11-30T20:24:39.114Z,102418.67
2022-11-30T20:29:46.342Z,102421.15
2022-11-30T20:34:56.499Z,102421.27
2022-11-30T20:40:04.059Z,102420.71
2022-11-30T20:45:11.868Z,102420.27
2022-11-30T20:50:19.031Z,102421.77
2022-11-30T20:55:26.105Z,102425.16
2022-11-30T21:00:33.041Z,102427.51
2022-11-30T21:05:42.111Z,102429.54
2022-11-30T21:10:48.986Z,102426.10
2022-11-30T21:15:56.008Z,102427.66
2022-11-30T21:21:06.675Z,102430.89
2022-11-30T21:26:18.810Z,102431.23
2022-11-30T21:31:25.891Z,102434.50
2022-11-30T21:36:32.952Z,102436.08
2022-11-30T21:41:41.826Z,102439.94
2022-11-30T21:46:49.194Z,102437.58
2022-11-30T21:51:57.338Z,102435.25
2022-11-30T21:57:04.311Z,102431.61
2022-11-30T22:02:12.496Z,102433.56
2022-11-30T22:07:31.740Z,102433.86
2022-11-30T22:12:38.761Z,102434.73
2022-11-30T22:17:45.746Z,102433.21
2022-11-30T22:22:52.567Z,102432.75
2022-11-30T22:27:59.439Z,102429.65
2022-11-30T22:33:06.341Z,102428.73
2022-11-30T22:38:15.037Z,102428.14
2022-11-30T22:43:22.065Z,102429.89
2022-11-30T22:48:31.785Z,102429.52
2022-11-30T22:53:39.798Z,102425.21
2022-11-30T22:58:47.064Z,102427.36
2022-11-30T23:03:56.423Z,102422.77
2022-11-30T23:09:04.121Z,102413.75
2022-11-30T23:14:12.412Z,102409.64
2022-11-30T23:19:19.379Z,102405.09
2022-11-30T23:24:26.263Z,102405.13
2022-11-30T23:29:34.773Z,102402.21
2022-11-30T23:34:41.716Z,102404.82
2022-11-30T23:39:48.817Z,102406.29
2022-11-30T23:45:01.110Z,102404.95
2022-11-30T23:50:09.621Z,102404.09
2022-11-30T23:55:16.551Z,102401.80
